AirNav   Everest Fuels
 
 443 users online  

IL23 Ellis Airport
Davis, Illinois, USA

GOING TO DAVIS?


FAA INFORMATION EFFECTIVE 07 OCTOBER 2021

Location

FAA Identifier: IL23
Lat/Long: 42-26-33.0500N 089-27-00.4160W
42-26.550833N 089-27.006933W
42.4425139,-89.4501156
(estimated)
Elevation: 900 ft. / 274 m (estimated)
Variation: 00E (1990)
From city: 2 miles NW of DAVIS, IL
Time zone: UTC -5 (UTC -6 during Standard Time)
Zip code: 61019

Airport Operations

Airport use: Private use. Permission required prior to landing
Activation date: 10/1993
Control tower: no
ARTCC: CHICAGO CENTER
FSS: KANKAKEE FLIGHT SERVICE STATION
Attendance: UNATNDD
Wind indicator: yes
Segmented circle: no

Airport Communications

WX AWOS-3 at EFT (12 nm NW): 118.375 (608-328-8359)
WX AWOS-3 at FEP (13 nm SW): 120.525 (815-233-4472)

Nearby radio navigation aids

VOR radial/distance  VOR name  Freq  Var
JVLr243/16.8JANESVILLE VOR/DME114.3003E
PLLr004/28.8POLO VOR/DME111.2003E

Airport Services

Runway Information

Runway 14/32

Dimensions: 2000 x 70 ft. / 610 x 21 m
Surface: turf, in good condition
RUNWAY 14  RUNWAY 32
Traffic pattern: leftleft

Airport Ownership and Management from official FAA records

Ownership: Privately-owned
Owner: RUSS ELLIS
9272 NORTH CHURCH ST.
DAVIS, IL 61019
Phone 815-865-5102
Manager: RUSS ELLIS
9272 NORTH CHURCH ST.
DAVIS, IL 61019
Phone 815-865-5102

Airport Operational Statistics

Aircraft based on the field: 1
Single engine airplanes: 1
    

Additional Remarks

FOR CD CTC CHICAGO ARTCC AT 630-906-8921.

Instrument Procedures

There are no published instrument procedures at IL23.

Some nearby airports with instrument procedures:

KEFT - Monroe Municipal Airport (12 nm NW)
KFEP - Albertus Airport (13 nm SW)
KJVL - Southern Wisconsin Regional Airport (21 nm NE)
KRFD - Chicago/Rockford International Airport (22 nm SE)
44C - Beloit Airport (22 nm E)
 
Loc | Ops | Rwys | IFR | FBO | Links
Com | Nav | Svcs | Stats | Notes
Area around IL23 (Ellis Airport)
 
Road maps at: MapQuest Bing Google
 
Aerial photo
No photo
 
Sectional chart

 
Airport distance calculator
Flying to Ellis Airport? Find the distance to fly.

From to IL23

Sunrise and sunset
Times for 28-Oct-2021
 Local
(UTC-5)
 Zulu
(UTC)
Morning civil twilight06:5811:58
Sunrise07:2712:27
Sunset17:5622:56
Evening civil twilight18:2523:25

Current date and time
Zulu (UTC)  28-Oct-2021 06:44:39
Local (UTC-5)  28-Oct-2021 01:44:39
 
METAR
KEFT 
11nm NW 
280635Z AUTO 08005KT 10SM CLR 07/05 A2977 RMK AO2 T00700048
KFEP 
13nm SW 
280630Z AUTO 09006KT 10SM CLR 09/03 A2978 RMK AO2 T00880033
KRFD 
21nm SE 
280554Z 08005KT 10SM OVC180 08/05 A2980 RMK AO2 SLP091 T00830050 10100 20083 401500017 55014
KJVL 
22nm NE 
280615Z AUTO 08003KT 10SM CLR 08/08 A2979 RMK AO2
TAF
KRFD 
21nm SE 
280523Z 2806/2906 10006KT P6SM OVC200 FM280800 10008KT P6SM BKN015 FM281500 07010G16KT 6SM -SHRA BR OVC008 FM290200 04012KT 3SM SHRA BR SCT005 OVC007
KJVL 
22nm NE 
280520Z 2806/2906 08006KT P6SM OVC200 FM280900 08005KT P6SM OVC030 FM281200 08007KT P6SM OVC015 FM281600 07008KT P6SM VCSH OVC009 FM282000 03010G20KT P6SM -RA OVC010
NOTAMs
Click for the latest NOTAMs
NOTAMs are issued by the DoD/FAA and will open in a separate window not controlled by AirNav.

 

 
 

Would you like to see your business listed on this page?

 If your business provides an interesting product or service to pilots, flight crews, aircraft, or users of the Ellis Airport, you should consider listing it here.  To start the listing process, click on the button below
 
Add a business
 

Other Pages about Ellis Airport

Update a link
 
Copyright © AirNav, LLC. All rights reserved. Privacy Policy  Contact